Time;durP1;ratioP1;P1;durP2;ratioP2;P2;SDS_P1;SDS_P2;PMS_P1;PMS_P2;Temp;Humidity;BMP_temperature;BMP_pressure;BME280_temperature;BME280_humidity;BME280_pressure;Samples;Min_cycle;Max_cycle;Signal;HPM_P1;HPM_P2
2021/12/01 00:01:31;;;;;;;0.88;0.55;;;19.20;87.00;;;;;;4980716;28;20141;-83
2021/12/01 00:03:58;;;;;;;0.73;0.50;;;19.20;87.00;;;;;;4995712;28;20129;-83
2021/12/01 00:06:24;;;;;;;0.35;0.22;;;19.20;87.00;;;;;;4995838;28;20046;-82
2021/12/01 00:08:50;;;;;;;0.60;0.45;;;19.20;87.00;;;;;;4969240;28;20065;-82
2021/12/01 00:11:17;;;;;;;0.70;0.40;;;19.20;87.10;;;;;;4975695;28;20415;-82
2021/12/01 00:13:43;;;;;;;0.68;0.55;;;19.20;87.00;;;;;;4975885;28;20126;-83
2021/12/01 00:16:10;;;;;;;1.05;0.50;;;19.20;87.00;;;;;;4976020;28;20046;-82
2021/12/01 00:18:36;;;;;;;0.70;0.40;;;19.20;87.10;;;;;;4975747;28;20137;-83
2021/12/01 00:21:03;;;;;;;0.70;0.50;;;19.20;87.10;;;;;;4975379;28;20527;-82
2021/12/01 00:23:29;;;;;;;0.60;0.40;;;19.20;87.10;;;;;;4975662;28;20495;-82
2021/12/01 00:25:56;;;;;;;0.82;0.47;;;19.20;87.00;;;;;;4975629;28;20052;-81
2021/12/01 00:28:22;;;;;;;0.50;0.50;;;19.20;87.00;;;;;;4968284;28;20042;-84
2021/12/01 00:30:49;;;;;;;0.55;0.40;;;19.20;87.10;;;;;;4975316;28;20076;-82
2021/12/01 00:33:17;;;;;;;0.50;0.35;;;19.20;87.10;;;;;;4975068;28;20053;-83
2021/12/01 00:35:43;;;;;;;0.77;0.50;;;19.20;87.10;;;;;;4974549;28;20078;-83
2021/12/01 00:38:10;;;;;;;1.33;0.50;;;19.20;87.10;;;;;;4974642;28;20062;-83
2021/12/01 00:40:36;;;;;;;0.60;0.50;;;19.20;87.10;;;;;;4970991;28;20069;-83
2021/12/01 00:43:03;;;;;;;0.50;0.40;;;19.20;87.10;;;;;;4975811;28;20133;-83
2021/12/01 00:45:32;;;;;;;0.77;0.55;;;19.20;87.10;;;;;;4975508;28;20188;-82
2021/12/01 00:47:58;;;;;;;0.73;0.45;;;19.20;87.10;;;;;;4975026;28;20051;-82
2021/12/01 00:50:25;;;;;;;0.57;0.45;;;19.20;87.10;;;;;;4975582;28;20053;-82
2021/12/01 00:52:52;;;;;;;0.85;0.40;;;19.20;87.20;;;;;;4975862;28;20055;-83
2021/12/01 00:55:18;;;;;;;0.88;0.32;;;19.20;87.20;;;;;;4975513;28;20133;-82
2021/12/01 00:57:44;;;;;;;0.80;0.50;;;19.20;87.20;;;;;;4974902;28;20463;-82
2021/12/01 01:00:11;;;;;;;0.60;0.40;;;19.20;87.20;;;;;;4974959;28;20038;-82
2021/12/01 01:02:37;;;;;;;0.77;0.47;;;19.20;87.20;;;;;;4974963;28;20054;-84
2021/12/01 01:05:04;;;;;;;0.60;0.40;;;19.20;87.20;;;;;;4975085;28;20050;-83
2021/12/01 01:07:30;;;;;;;0.60;0.40;;;19.20;87.20;;;;;;4972413;28;20526;-83
2021/12/01 01:09:59;;;;;;;0.65;0.50;;;19.20;87.20;;;;;;4975480;28;20053;-83
2021/12/01 01:18:05;;;;;;;0.70;0.47;;;19.20;87.30;;;;;;4974289;28;20062;-83
2021/12/01 01:20:31;;;;;;;0.60;0.40;;;19.20;87.30;;;;;;4974558;28;20420;-83
2021/12/01 01:22:58;;;;;;;0.75;0.40;;;19.20;87.30;;;;;;4974588;28;20051;-83
2021/12/01 01:25:24;;;;;;;0.82;0.40;;;19.20;87.30;;;;;;4972558;28;20046;-83
2021/12/01 01:27:51;;;;;;;1.10;0.50;;;19.20;87.30;;;;;;4970636;28;20049;-83
2021/12/01 01:30:17;;;;;;;0.47;0.40;;;19.20;87.40;;;;;;4967834;28;20049;-83
2021/12/01 01:32:44;;;;;;;0.85;0.47;;;19.20;87.40;;;;;;4968661;28;20054;-83
2021/12/01 01:35:10;;;;;;;0.43;0.28;;;19.20;87.40;;;;;;4969257;28;20046;-84
2021/12/01 01:37:37;;;;;;;0.43;0.40;;;19.20;87.40;;;;;;4965705;28;20055;-83
2021/12/01 01:40:03;;;;;;;0.80;0.55;;;19.20;87.40;;;;;;4965971;28;20045;-84
2021/12/01 01:42:29;;;;;;;0.60;0.40;;;19.20;87.50;;;;;;4967393;28;20507;-83
2021/12/01 01:44:56;;;;;;;0.52;0.30;;;19.20;87.50;;;;;;4968462;28;20050;-83
2021/12/01 01:47:22;;;;;;;0.57;0.40;;;19.20;87.50;;;;;;4967963;28;20038;-83
2021/12/01 01:49:54;;;;;;;0.93;0.40;;;19.20;87.50;;;;;;4967929;28;20133;-84
2021/12/01 01:52:20;;;;;;;1.00;0.40;;;19.20;87.60;;;;;;4967643;28;20109;-84
2021/12/01 01:54:47;;;;;;;0.47;0.38;;;19.20;87.50;;;;;;4967473;28;20086;-84
2021/12/01 01:57:13;;;;;;;0.70;0.43;;;19.30;87.60;;;;;;4968165;28;20050;-84
2021/12/01 01:59:39;;;;;;;0.60;0.30;;;19.20;87.60;;;;;;4968009;28;20059;-83
2021/12/01 02:02:06;;;;;;;0.77;0.32;;;19.20;87.60;;;;;;4969876;28;20053;-83
2021/12/01 02:04:34;;;;;;;0.32;0.30;;;19.20;87.60;;;;;;4973446;28;20051;-83
2021/12/01 02:07:00;;;;;;;1.20;0.40;;;19.30;87.70;;;;;;4968722;28;20129;-83
2021/12/01 02:09:27;;;;;;;0.68;0.47;;;19.20;87.60;;;;;;4973839;28;20133;-83
2021/12/01 02:11:53;;;;;;;0.57;0.30;;;19.20;87.70;;;;;;4972946;28;20081;-83
2021/12/01 02:14:21;;;;;;;0.77;0.30;;;19.20;87.70;;;;;;4973079;28;20063;-82
2021/12/01 02:16:47;;;;;;;0.60;0.40;;;19.20;87.70;;;;;;4973348;28;20125;-83
2021/12/01 02:19:14;;;;;;;0.85;0.40;;;19.20;87.70;;;;;;4973421;28;20050;-83
2021/12/01 02:21:41;;;;;;;1.30;0.60;;;19.20;87.70;;;;;;4971894;28;20134;-83
2021/12/01 02:24:07;;;;;;;0.50;0.40;;;19.30;87.80;;;;;;4973519;28;20055;-84
2021/12/01 02:26:34;;;;;;;0.40;0.30;;;19.30;87.80;;;;;;4973349;28;20377;-83
2021/12/01 02:29:00;;;;;;;0.60;0.32;;;19.30;87.80;;;;;;4972866;28;20046;-81
2021/12/01 02:31:29;;;;;;;0.95;0.40;;;19.20;87.80;;;;;;4972460;28;20047;-82
2021/12/01 02:33:55;;;;;;;1.20;0.30;;;19.30;87.90;;;;;;4973418;28;20138;-83
2021/12/01 02:36:21;;;;;;;0.43;0.30;;;19.30;87.80;;;;;;4959238;28;20045;-84
2021/12/01 02:38:48;;;;;;;1.00;0.40;;;19.30;87.80;;;;;;4973037;28;20057;-84
2021/12/01 02:41:14;;;;;;;0.77;0.40;;;19.20;87.80;;;;;;4972848;28;20411;-83
2021/12/01 02:43:41;;;;;;;0.60;0.30;;;19.20;87.90;;;;;;4973476;28;20055;-83
2021/12/01 02:46:07;;;;;;;0.68;0.40;;;19.30;87.90;;;;;;4973331;28;20068;-83
2021/12/01 02:48:41;;;;;;;0.88;0.30;;;19.30;87.90;;;;;;4972228;28;20049;-84
2021/12/01 02:51:08;;;;;;;0.65;0.30;;;19.20;87.90;;;;;;4974238;28;20039;-83
2021/12/01 02:53:34;;;;;;;0.68;0.40;;;19.30;88.00;;;;;;4972816;28;20042;-83
2021/12/01 02:56:01;;;;;;;1.08;0.30;;;19.30;88.00;;;;;;4972941;28;20058;-83
2021/12/01 02:58:27;;;;;;;1.08;0.50;;;19.30;88.00;;;;;;4974006;28;20039;-83
2021/12/01 03:00:54;;;;;;;0.85;0.40;;;19.30;88.00;;;;;;4979905;28;20155;-83
2021/12/01 03:03:20;;;;;;;0.60;0.40;;;19.30;88.30;;;;;;4978963;28;20076;-84
2021/12/01 03:05:47;;;;;;;1.10;0.40;;;19.30;88.10;;;;;;4972689;28;20049;-82
2021/12/01 03:08:13;;;;;;;0.95;0.30;;;19.30;88.00;;;;;;4979088;28;20125;-83
2021/12/01 03:10:40;;;;;;;0.45;0.28;;;19.30;88.10;;;;;;4978671;28;20046;-82
2021/12/01 03:13:06;;;;;;;0.63;0.30;;;19.30;88.20;;;;;;4979051;28;20137;-82
2021/12/01 03:15:32;;;;;;;0.68;0.30;;;19.30;88.10;;;;;;4979457;28;20055;-84
2021/12/01 03:18:00;;;;;;;0.90;0.40;;;19.30;88.10;;;;;;4978707;28;20061;-83
2021/12/01 03:20:26;;;;;;;0.73;0.30;;;19.30;88.20;;;;;;4977691;28;20086;-83
2021/12/01 03:22:53;;;;;;;0.20;0.17;;;19.30;88.20;;;;;;4976902;28;20061;-83
2021/12/01 03:25:19;;;;;;;0.70;0.25;;;19.30;88.20;;;;;;4978654;28;20046;-84
2021/12/01 03:27:46;;;;;;;0.45;0.30;;;19.30;88.20;;;;;;4978124;28;20046;-83
2021/12/01 03:30:12;;;;;;;0.88;0.22;;;19.30;88.20;;;;;;4978064;28;20047;-83
2021/12/01 03:32:38;;;;;;;0.28;0.17;;;19.20;88.20;;;;;;4978768;28;20053;-84
2021/12/01 03:35:05;;;;;;;0.30;0.20;;;19.30;88.20;;;;;;4977691;28;20118;-83
2021/12/01 03:37:31;;;;;;;0.45;0.20;;;19.30;88.30;;;;;;4977128;28;20049;-84
2021/12/01 03:39:58;;;;;;;0.93;0.43;;;19.30;88.30;;;;;;4978672;28;20403;-84
2021/12/01 03:42:25;;;;;;;0.22;0.20;;;19.30;88.30;;;;;;4978203;28;20504;-84
2021/12/01 03:44:51;;;;;;;0.30;0.30;;;19.30;88.30;;;;;;4976755;28;20126;-83
2021/12/01 03:47:18;;;;;;;0.40;0.20;;;19.30;88.30;;;;;;4977432;28;20049;-83
2021/12/01 03:49:44;;;;;;;0.30;0.20;;;19.30;88.30;;;;;;4976889;28;20042;-84
2021/12/01 03:52:16;;;;;;;0.45;0.20;;;19.30;88.40;;;;;;4978579;28;20483;-84
2021/12/01 03:54:42;;;;;;;0.57;0.30;;;19.30;88.40;;;;;;4978598;28;20050;-83
2021/12/01 03:57:09;;;;;;;0.40;0.20;;;19.30;88.30;;;;;;4978647;28;20042;-83
2021/12/01 03:59:35;;;;;;;0.40;0.30;;;19.30;88.40;;;;;;4978983;28;20141;-83
2021/12/01 04:02:02;;;;;;;0.50;0.30;;;19.30;88.40;;;;;;4977513;28;20129;-83
2021/12/01 04:04:28;;;;;;;0.47;0.20;;;19.30;88.40;;;;;;4976387;28;20053;-83
2021/12/01 04:06:55;;;;;;;0.43;0.20;;;19.30;88.40;;;;;;4977498;28;20475;-82
2021/12/01 04:09:21;;;;;;;0.43;0.30;;;19.30;88.40;;;;;;4977742;28;20130;-83
2021/12/01 04:11:48;;;;;;;0.38;0.17;;;19.30;88.50;;;;;;4973065;28;20047;-83
2021/12/01 04:14:14;;;;;;;0.57;0.10;;;19.30;88.50;;;;;;4973512;28;20047;-82
2021/12/01 04:16:41;;;;;;;0.38;0.20;;;19.30;88.50;;;;;;4976456;28;20046;-82
2021/12/01 04:19:07;;;;;;;0.45;0.10;;;19.30;88.40;;;;;;4975420;28;20046;-83
2021/12/01 04:21:33;;;;;;;0.45;0.20;;;19.30;88.50;;;;;;4975729;28;20596;-83
2021/12/01 04:24:00;;;;;;;0.30;0.25;;;19.30;88.50;;;;;;4975718;28;20411;-83
2021/12/01 04:26:31;;;;;;;0.45;0.20;;;19.30;88.50;;;;;;4976157;28;20126;-83
2021/12/01 04:28:58;;;;;;;0.30;0.10;;;19.30;88.50;;;;;;4975491;28;20500;-83
2021/12/01 04:31:24;;;;;;;1.40;0.20;;;19.30;88.60;;;;;;4975292;28;20051;-82
2021/12/01 04:33:51;;;;;;;0.70;0.20;;;19.30;88.60;;;;;;4979300;28;20460;-83
2021/12/01 04:36:18;;;;;;;1.08;0.43;;;19.30;88.60;;;;;;4975865;28;20073;-83
2021/12/01 04:38:44;;;;;;;0.40;0.17;;;19.30;88.60;;;;;;4975357;28;20178;-83
2021/12/01 04:41:13;;;;;;;0.68;0.20;;;19.30;88.60;;;;;;4975710;28;20049;-83
2021/12/01 04:43:39;;;;;;;0.15;0.10;;;19.30;88.70;;;;;;4976083;28;20138;-83
2021/12/01 04:46:06;;;;;;;0.22;0.15;;;19.30;88.70;;;;;;4975348;28;20113;-83
2021/12/01 04:48:32;;;;;;;0.50;0.20;;;19.30;88.60;;;;;;4975128;28;20046;-84
2021/12/01 04:50:59;;;;;;;0.25;0.20;;;19.30;88.60;;;;;;4984094;28;20480;-83
2021/12/01 04:53:25;;;;;;;0.13;0.10;;;19.30;88.70;;;;;;4990979;28;20043;-84
2021/12/01 04:55:52;;;;;;;0.77;0.20;;;19.30;88.80;;;;;;4975011;28;20058;-83
2021/12/01 04:58:18;;;;;;;0.28;0.20;;;19.30;88.70;;;;;;4974631;28;20126;-83
2021/12/01 05:00:45;;;;;;;0.57;0.17;;;19.30;88.70;;;;;;4975099;28;20057;-83
2021/12/01 05:03:11;;;;;;;0.45;0.20;;;19.30;88.70;;;;;;4969969;28;20422;-80
2021/12/01 05:05:38;;;;;;;0.43;0.17;;;19.30;88.70;;;;;;4975124;28;20411;-82
2021/12/01 05:08:04;;;;;;;0.68;0.40;;;19.30;88.70;;;;;;4974876;28;20142;-83
2021/12/01 05:10:31;;;;;;;0.47;0.20;;;19.30;88.70;;;;;;4975229;28;20130;-83
2021/12/01 05:12:57;;;;;;;0.20;0.10;;;19.30;88.80;;;;;;4974892;28;20065;-83
2021/12/01 05:15:23;;;;;;;0.20;0.10;;;19.30;88.80;;;;;;4974687;28;20043;-83
2021/12/01 05:17:50;;;;;;;0.35;0.10;;;19.30;88.80;;;;;;4974391;28;20047;-82
2021/12/01 05:20:17;;;;;;;0.28;0.20;;;19.30;88.80;;;;;;4970672;28;20459;-83
2021/12/01 05:22:44;;;;;;;0.70;0.10;;;19.30;88.80;;;;;;4973374;28;20129;-82
2021/12/01 05:25:10;;;;;;;0.25;0.13;;;19.30;88.90;;;;;;4975345;28;20050;-82
2021/12/01 05:27:37;;;;;;;0.70;0.15;;;19.30;88.80;;;;;;4974446;28;20057;-82
2021/12/01 05:30:03;;;;;;;0.35;0.10;;;19.30;89.30;;;;;;4973842;28;20129;-83
2021/12/01 05:32:31;;;;;;;0.10;0.10;;;19.30;88.90;;;;;;4974034;28;20496;-83
2021/12/01 05:34:57;;;;;;;0.40;0.10;;;19.30;88.90;;;;;;4974233;28;20105;-84
2021/12/01 05:37:24;;;;;;;0.60;0.10;;;19.30;88.90;;;;;;4974318;28;20051;-82
2021/12/01 05:39:50;;;;;;;0.40;0.20;;;19.30;88.90;;;;;;4974347;28;20138;-83
2021/12/01 05:42:17;;;;;;;0.20;0.10;;;19.30;88.90;;;;;;4974327;28;20046;-83
2021/12/01 05:44:43;;;;;;;0.75;0.17;;;19.30;88.90;;;;;;4974200;28;20058;-83
2021/12/01 05:47:10;;;;;;;0.55;0.10;;;19.30;89.00;;;;;;4974424;28;20051;-82
2021/12/01 05:49:41;;;;;;;1.13;0.10;;;19.30;88.90;;;;;;4973697;28;20731;-83
2021/12/01 05:52:08;;;;;;;0.75;0.20;;;19.30;88.90;;;;;;4974192;28;20050;-83
2021/12/01 05:54:35;;;;;;;0.20;0.20;;;19.30;89.00;;;;;;4973691;28;20051;-83
2021/12/01 05:57:01;;;;;;;0.20;0.20;;;19.30;89.00;;;;;;4966917;28;20049;-82
2021/12/01 05:59:28;;;;;;;0.43;0.13;;;19.30;88.90;;;;;;4974667;28;20047;-83
2021/12/01 06:01:54;;;;;;;0.20;0.08;;;19.30;88.90;;;;;;4967936;28;20138;-83
2021/12/01 06:04:23;;;;;;;0.20;0.10;;;19.30;89.00;;;;;;4974046;28;20500;-83
2021/12/01 06:06:50;;;;;;;0.17;0.10;;;19.30;89.00;;;;;;4973914;28;20109;-82
2021/12/01 06:09:16;;;;;;;0.20;0.10;;;19.30;89.00;;;;;;4973581;28;20130;-83
2021/12/01 06:11:46;;;;;;;0.30;0.15;;;19.30;89.00;;;;;;4973045;28;20049;-83
2021/12/01 06:14:13;;;;;;;0.10;0.10;;;19.30;89.00;;;;;;4973587;28;20051;-83
2021/12/01 06:16:39;;;;;;;0.10;0.10;;;19.30;89.00;;;;;;4974151;28;20054;-83
2021/12/01 06:19:06;;;;;;;0.47;0.10;;;19.30;89.00;;;;;;4973104;28;20049;-82
2021/12/01 06:21:32;;;;;;;0.20;0.10;;;19.30;89.00;;;;;;4973155;28;20423;-83
2021/12/01 06:23:59;;;;;;;0.50;0.20;;;19.30;89.00;;;;;;4973740;28;20050;-83
2021/12/01 06:26:25;;;;;;;0.20;0.10;;;19.30;89.00;;;;;;4973589;28;20049;-83
2021/12/01 06:28:52;;;;;;;0.10;0.10;;;19.30;89.00;;;;;;4973612;28;20129;-83
2021/12/01 06:31:18;;;;;;;0.10;0.00;;;19.30;89.00;;;;;;4972843;28;20389;-83
2021/12/01 06:33:45;;;;;;;0.10;0.10;;;19.30;89.00;;;;;;4973604;28;20050;-83
2021/12/01 06:36:11;;;;;;;0.10;0.10;;;19.30;89.00;;;;;;4973299;28;20043;-83
2021/12/01 06:38:39;;;;;;;0.00;0.00;;;19.30;89.00;;;;;;4973265;28;20055;-83
2021/12/01 06:41:05;;;;;;;0.10;0.00;;;19.30;89.00;;;;;;4972767;28;20055;-85
2021/12/01 06:43:31;;;;;;;0.20;0.10;;;19.30;89.10;;;;;;4973803;28;20070;-84
2021/12/01 06:45:58;;;;;;;0.15;0.03;;;19.30;89.10;;;;;;4970714;28;20049;-83
2021/12/01 06:48:24;;;;;;;0.40;0.20;;;19.30;89.10;;;;;;4972539;28;20129;-83
2021/12/01 06:50:51;;;;;;;0.40;0.10;;;19.30;89.10;;;;;;4972386;28;20499;-84
2021/12/01 06:53:17;;;;;;;0.30;0.10;;;19.30;89.10;;;;;;4973420;28;20055;-84
2021/12/01 06:55:44;;;;;;;0.52;0.30;;;19.30;89.20;;;;;;4973189;28;20425;-83
2021/12/01 06:58:10;;;;;;;0.30;0.00;;;19.30;89.20;;;;;;4969594;28;20151;-84
2021/12/01 07:00:37;;;;;;;0.70;0.20;;;19.30;89.20;;;;;;4969183;28;20050;-82
2021/12/01 07:03:03;;;;;;;0.80;0.30;;;19.30;89.30;;;;;;4969547;28;20441;-83
2021/12/01 07:05:30;;;;;;;0.50;0.28;;;19.30;89.40;;;;;;4961166;28;20061;-84
2021/12/01 07:07:56;;;;;;;0.82;0.30;;;19.30;89.60;;;;;;4961082;28;20079;-83
2021/12/01 07:10:23;;;;;;;0.80;0.28;;;19.30;89.50;;;;;;4969325;28;20042;-84
2021/12/01 07:12:49;;;;;;;0.88;0.30;;;19.30;89.60;;;;;;4974064;28;20583;-84
2021/12/01 07:15:16;;;;;;;1.55;0.40;;;19.40;89.80;;;;;;4972975;28;20411;-83
2021/12/01 07:17:42;;;;;;;2.03;0.28;;;19.40;89.90;;;;;;4973037;28;20097;-82
2021/12/01 07:20:09;;;;;;;1.27;0.35;;;19.40;89.90;;;;;;4973004;28;20054;-84
2021/12/01 07:22:35;;;;;;;1.58;0.40;;;19.40;89.90;;;;;;4973272;28;20154;-83
2021/12/01 07:25:02;;;;;;;1.30;0.30;;;19.40;90.00;;;;;;4972999;28;20426;-83
2021/12/01 07:27:28;;;;;;;1.75;0.13;;;19.40;90.00;;;;;;4973493;28;20090;-83
2021/12/01 07:29:55;;;;;;;1.08;0.30;;;19.40;90.00;;;;;;4972930;28;20071;-84
2021/12/01 07:32:21;;;;;;;1.60;0.52;;;19.40;90.00;;;;;;4973016;28;20047;-83
2021/12/01 07:34:47;;;;;;;1.65;0.50;;;19.40;90.00;;;;;;4973122;28;20482;-81
2021/12/01 07:37:14;;;;;;;1.67;0.40;;;19.40;90.10;;;;;;4973056;28;20057;-84
2021/12/01 07:39:40;;;;;;;1.30;0.38;;;19.40;90.10;;;;;;4973217;28;20054;-83
2021/12/01 07:42:07;;;;;;;1.73;0.40;;;19.40;90.10;;;;;;4973019;28;20057;-83
2021/12/01 07:44:33;;;;;;;1.48;0.40;;;19.40;90.10;;;;;;4973593;28;20060;-83
2021/12/01 07:47:00;;;;;;;3.00;0.35;;;19.30;90.10;;;;;;4976596;28;20047;-84
2021/12/01 07:49:26;;;;;;;0.75;0.30;;;19.30;90.10;;;;;;4976620;28;20518;-84
2021/12/01 07:51:53;;;;;;;1.30;0.47;;;19.30;90.10;;;;;;4976537;28;20145;-84
2021/12/01 07:54:19;;;;;;;1.25;0.30;;;19.30;90.10;;;;;;4976732;28;20050;-84
2021/12/01 07:56:46;;;;;;;0.82;0.45;;;19.30;90.10;;;;;;4972965;28;20122;-83
2021/12/01 07:59:15;;;;;;;0.70;0.20;;;19.30;90.10;;;;;;4957274;28;20047;-83
2021/12/01 08:01:41;;;;;;;2.22;0.73;;;19.30;90.10;;;;;;4956773;28;20055;-84
2021/12/01 08:04:08;;;;;;;0.52;0.30;;;19.30;90.10;;;;;;4956885;28;20134;-84
2021/12/01 08:06:35;;;;;;;0.82;0.28;;;19.30;90.10;;;;;;4957150;28;20059;-83
2021/12/01 08:09:02;;;;;;;1.10;0.30;;;19.30;90.20;;;;;;4956972;28;20086;-84
2021/12/01 08:11:28;;;;;;;1.23;0.30;;;19.30;90.10;;;;;;4956811;28;20139;-84
2021/12/01 08:13:54;;;;;;;1.83;0.50;;;19.30;90.10;;;;;;4956839;28;20142;-84
2021/12/01 08:16:21;;;;;;;0.50;0.30;;;19.20;90.10;;;;;;4957005;28;20051;-84
2021/12/01 08:18:51;;;;;;;1.15;0.43;;;19.20;90.10;;;;;;4956690;28;20043;-83
2021/12/01 08:21:17;;;;;;;1.13;0.30;;;19.20;90.10;;;;;;4956379;28;20055;-82
2021/12/01 08:23:44;;;;;;;1.67;0.60;;;19.30;90.10;;;;;;4956740;28;20073;-83
2021/12/01 08:26:10;;;;;;;1.33;0.40;;;19.20;90.10;;;;;;4956759;28;20074;-83
2021/12/01 08:28:37;;;;;;;1.38;0.50;;;19.20;90.10;;;;;;4956722;28;20130;-84
2021/12/01 08:31:03;;;;;;;1.08;0.40;;;19.30;90.10;;;;;;4956531;28;20492;-84
2021/12/01 08:33:30;;;;;;;0.95;0.40;;;19.30;90.10;;;;;;4956637;28;20500;-84
2021/12/01 08:35:56;;;;;;;1.73;0.55;;;19.20;90.10;;;;;;4957449;28;20051;-83
2021/12/01 08:38:22;;;;;;;1.05;0.30;;;19.20;90.10;;;;;;4956571;28;20086;-84
2021/12/01 08:40:49;;;;;;;1.83;0.30;;;19.20;90.10;;;;;;4956574;28;20057;-84
2021/12/01 08:43:15;;;;;;;0.52;0.40;;;19.20;90.10;;;;;;4957500;28;20579;-84
2021/12/01 08:45:42;;;;;;;1.38;0.50;;;19.20;90.10;;;;;;4956327;28;20397;-83
2021/12/01 08:48:08;;;;;;;0.90;0.40;;;19.20;90.10;;;;;;4956370;28;20154;-83
2021/12/01 08:50:35;;;;;;;1.73;0.43;;;19.20;90.10;;;;;;4956325;28;20148;-83
2021/12/01 08:53:01;;;;;;;0.70;0.40;;;19.20;90.10;;;;;;4956366;28;20093;-83
2021/12/01 08:55:28;;;;;;;1.05;0.40;;;19.20;90.00;;;;;;4956211;28;20103;-83
2021/12/01 08:57:54;;;;;;;0.60;0.30;;;19.20;90.10;;;;;;4955242;28;20130;-84
2021/12/01 09:00:21;;;;;;;0.93;0.40;;;19.20;90.10;;;;;;4955800;28;20047;-83
2021/12/01 09:02:47;;;;;;;1.13;0.50;;;19.20;90.00;;;;;;4956183;28;20050;-83
2021/12/01 09:05:13;;;;;;;0.77;0.35;;;19.20;90.00;;;;;;4956099;28;20055;-84
2021/12/01 09:07:40;;;;;;;0.52;0.30;;;19.20;90.10;;;;;;4955802;28;20551;-84
2021/12/01 09:10:06;;;;;;;0.75;0.28;;;19.20;90.10;;;;;;4955732;28;20412;-84
2021/12/01 09:12:33;;;;;;;0.20;0.20;;;19.20;90.00;;;;;;4955911;28;20134;-83
2021/12/01 09:15:02;;;;;;;0.60;0.30;;;19.20;90.00;;;;;;4955649;28;20057;-84
2021/12/01 09:17:28;;;;;;;0.70;0.30;;;19.20;90.00;;;;;;4956072;28;20087;-83
2021/12/01 09:19:54;;;;;;;0.70;0.40;;;19.20;90.00;;;;;;4955783;28;20047;-83
2021/12/01 09:22:21;;;;;;;0.60;0.28;;;19.30;90.00;;;;;;4955662;28;20050;-84
2021/12/01 09:24:47;;;;;;;0.50;0.30;;;19.20;90.00;;;;;;4955547;28;20057;-84
2021/12/01 09:27:14;;;;;;;0.57;0.30;;;19.20;90.00;;;;;;4955639;28;20102;-83
2021/12/01 09:29:40;;;;;;;0.38;0.20;;;19.20;90.00;;;;;;4955418;28;20075;-84
2021/12/01 09:32:07;;;;;;;0.50;0.35;;;19.30;90.00;;;;;;4955844;28;20054;-84
2021/12/01 09:34:33;;;;;;;0.55;0.30;;;19.30;90.00;;;;;;4955706;28;20051;-84
2021/12/01 09:37:00;;;;;;;0.85;0.30;;;19.30;90.00;;;;;;4955477;28;20133;-84
2021/12/01 09:39:26;;;;;;;0.98;0.35;;;19.30;90.00;;;;;;4955262;28;20054;-84
2021/12/01 09:41:54;;;;;;;0.85;0.32;;;19.30;90.00;;;;;;4955289;28;20047;-84
2021/12/01 09:44:21;;;;;;;1.15;0.40;;;19.30;90.00;;;;;;4955075;28;20057;-83
2021/12/01 09:46:47;;;;;;;0.50;0.28;;;19.30;90.00;;;;;;4955064;28;20057;-84
2021/12/01 09:49:13;;;;;;;0.40;0.30;;;19.30;90.00;;;;;;4955013;28;20047;-84
2021/12/01 09:51:40;;;;;;;0.30;0.20;;;19.30;90.00;;;;;;4954934;28;20053;-84
2021/12/01 09:54:06;;;;;;;0.65;0.30;;;19.30;90.00;;;;;;4955081;28;20130;-84
2021/12/01 09:56:33;;;;;;;1.23;0.40;;;19.30;90.00;;;;;;4954785;28;20126;-84
2021/12/01 09:58:59;;;;;;;1.02;0.40;;;19.30;90.00;;;;;;4955066;28;20118;-84
2021/12/01 10:01:26;;;;;;;1.13;0.50;;;19.30;90.00;;;;;;4954867;28;20127;-84
2021/12/01 10:03:52;;;;;;;1.00;0.35;;;19.30;89.90;;;;;;4954676;28;20504;-84
2021/12/01 10:06:19;;;;;;;1.08;0.43;;;19.30;89.90;;;;;;4954997;28;20081;-84
2021/12/01 10:08:45;;;;;;;0.82;0.40;;;19.30;89.90;;;;;;4953955;28;20130;-84
2021/12/01 10:11:12;;;;;;;0.85;0.28;;;19.30;89.90;;;;;;4954534;28;20051;-84
2021/12/01 10:13:39;;;;;;;1.23;0.40;;;19.30;89.80;;;;;;4954530;28;20525;-83
2021/12/01 10:16:05;;;;;;;1.20;0.50;;;19.30;89.80;;;;;;4954966;28;20114;-84
2021/12/01 10:18:32;;;;;;;1.58;0.30;;;19.30;89.80;;;;;;4954647;28;20138;-83
2021/12/01 10:20:58;;;;;;;1.17;0.40;;;19.20;89.80;;;;;;4954589;28;20154;-84
2021/12/01 10:23:25;;;;;;;0.50;0.22;;;19.30;89.80;;;;;;4954493;28;20130;-83
2021/12/01 10:25:52;;;;;;;2.08;0.50;;;19.30;89.70;;;;;;4954395;28;20137;-84
2021/12/01 10:28:18;;;;;;;0.75;0.38;;;19.30;89.70;;;;;;4954407;28;20047;-84
2021/12/01 10:30:45;;;;;;;0.95;0.40;;;19.30;89.70;;;;;;4954512;28;20047;-84
2021/12/01 10:33:11;;;;;;;1.52;0.47;;;19.30;89.60;;;;;;4954887;28;20055;-84
2021/12/01 10:35:37;;;;;;;0.60;0.28;;;19.30;89.60;;;;;;4954393;28;20061;-83
2021/12/01 10:38:06;;;;;;;1.63;0.43;;;19.30;89.60;;;;;;4954245;28;20083;-84
2021/12/01 10:40:33;;;;;;;0.50;0.40;;;19.30;89.60;;;;;;4954133;28;20050;-83
2021/12/01 10:42:59;;;;;;;1.05;0.50;;;19.30;89.60;;;;;;4954552;28;20055;-84
2021/12/01 10:45:26;;;;;;;0.88;0.40;;;19.30;89.60;;;;;;4954121;28;20495;-84
2021/12/01 10:47:52;;;;;;;1.02;0.40;;;19.30;89.50;;;;;;4954347;28;20130;-84
2021/12/01 10:50:18;;;;;;;1.05;0.40;;;19.30;89.60;;;;;;4954131;28;20043;-83
2021/12/01 10:52:47;;;;;;;1.27;0.40;;;19.30;89.60;;;;;;4954130;28;20138;-84
2021/12/01 10:55:14;;;;;;;0.75;0.30;;;19.30;89.50;;;;;;4954014;28;20074;-83
2021/12/01 10:57:40;;;;;;;1.20;0.30;;;19.30;89.50;;;;;;4953989;28;20057;-84
2021/12/01 11:00:07;;;;;;;1.05;0.52;;;19.30;89.50;;;;;;4953979;28;20057;-82
2021/12/01 11:02:33;;;;;;;1.15;0.47;;;19.30;89.50;;;;;;4954026;28;20051;-83
2021/12/01 11:05:00;;;;;;;1.10;0.50;;;19.30;89.50;;;;;;4953858;28;20057;-84
2021/12/01 11:07:26;;;;;;;1.60;0.60;;;19.30;89.50;;;;;;4954026;28;20150;-83
2021/12/01 11:09:53;;;;;;;1.38;0.45;;;19.30;89.50;;;;;;4953892;28;20055;-83
2021/12/01 11:12:19;;;;;;;0.88;0.50;;;19.30;89.40;;;;;;4953971;28;20138;-84
2021/12/01 11:14:46;;;;;;;1.38;0.52;;;19.30;89.40;;;;;;4953901;28;20483;-83
2021/12/01 11:17:13;;;;;;;1.27;0.50;;;19.30;89.40;;;;;;4953986;28;20053;-84
2021/12/01 11:19:39;;;;;;;1.40;0.43;;;19.30;89.40;;;;;;4954775;28;20043;-84
2021/12/01 11:22:06;;;;;;;1.50;0.50;;;19.30;89.40;;;;;;4957566;28;20051;-83
2021/12/01 11:24:32;;;;;;;1.20;0.45;;;19.30;89.30;;;;;;4965693;28;20047;-83
2021/12/01 11:26:59;;;;;;;1.48;0.40;;;19.30;89.30;;;;;;4962149;28;20411;-82
2021/12/01 11:29:26;;;;;;;1.95;0.57;;;19.30;89.20;;;;;;4976827;28;20130;-84
2021/12/01 11:31:52;;;;;;;1.30;0.50;;;19.30;89.30;;;;;;4976464;28;20523;-84
2021/12/01 11:34:19;;;;;;;2.17;0.77;;;19.30;89.30;;;;;;4975328;28;20042;-83
2021/12/01 11:36:45;;;;;;;1.65;0.50;;;19.30;89.30;;;;;;4977333;28;20134;-83
2021/12/01 11:39:12;;;;;;;2.30;0.60;;;19.30;89.30;;;;;;4976418;28;20089;-82
2021/12/01 11:41:41;;;;;;;1.10;0.52;;;19.30;89.30;;;;;;4976846;28;20057;-83
2021/12/01 11:44:08;;;;;;;1.20;0.43;;;19.30;89.30;;;;;;4972124;28;20046;-83
2021/12/01 11:46:34;;;;;;;1.83;0.40;;;19.30;89.30;;;;;;4973544;28;20047;-83
2021/12/01 11:49:01;;;;;;;0.70;0.30;;;19.30;89.30;;;;;;4982606;28;20046;-83
2021/12/01 11:51:28;;;;;;;1.85;0.40;;;19.30;89.30;;;;;;4969190;28;20129;-84
2021/12/01 11:53:55;;;;;;;3.10;0.88;;;19.30;89.30;;;;;;4972281;28;20055;-84
2021/12/01 11:56:25;;;;;;;1.38;0.50;;;19.30;89.30;;;;;;4972993;28;20093;-82
2021/12/01 11:58:52;;;;;;;1.80;0.50;;;19.30;89.30;;;;;;4965312;28;20467;-83
2021/12/01 12:01:18;;;;;;;1.40;0.60;;;19.30;89.30;;;;;;4977383;28;20423;-82
2021/12/01 12:03:45;;;;;;;2.05;0.60;;;19.30;89.30;;;;;;4982727;28;20042;-83
2021/12/01 12:06:11;;;;;;;2.38;0.70;;;19.30;89.30;;;;;;4975383;28;20169;-83
2021/12/01 12:08:38;;;;;;;1.83;0.60;;;19.30;89.30;;;;;;4981605;28;20133;-83
2021/12/01 12:11:04;;;;;;;3.05;0.70;;;19.30;89.20;;;;;;4972937;28;20046;-83
2021/12/01 12:13:31;;;;;;;3.78;1.02;;;19.30;89.10;;;;;;4973172;28;20043;-83
2021/12/01 12:15:57;;;;;;;2.70;0.63;;;19.30;89.10;;;;;;4973358;28;20046;-82
2021/12/01 12:18:24;;;;;;;1.35;0.70;;;19.30;89.10;;;;;;4972072;28;20049;-83
2021/12/01 12:20:53;;;;;;;1.88;0.60;;;19.30;89.10;;;;;;4972169;28;20043;-83
2021/12/01 12:23:20;;;;;;;3.17;0.82;;;19.30;88.90;;;;;;4967907;28;20134;-83
2021/12/01 12:25:49;;;;;;;2.45;0.77;;;19.30;88.80;;;;;;4972926;28;20059;-83
2021/12/01 12:28:15;;;;;;;1.63;0.52;;;19.30;88.80;;;;;;4972470;28;20169;-83
2021/12/01 12:30:42;;;;;;;2.10;0.75;;;19.40;88.80;;;;;;4972454;28;20374;-84
2021/12/01 12:33:08;;;;;;;3.20;0.80;;;19.30;88.70;;;;;;4972609;28;20055;-83
2021/12/01 12:35:35;;;;;;;3.80;1.05;;;19.30;88.60;;;;;;4975631;28;20054;-83
2021/12/01 12:38:01;;;;;;;2.97;0.73;;;19.30;88.40;;;;;;4975507;28;20503;-82
2021/12/01 12:40:28;;;;;;;3.35;0.85;;;19.40;88.40;;;;;;4975330;28;20405;-83
2021/12/01 12:42:54;;;;;;;2.85;0.85;;;19.40;88.40;;;;;;4975579;28;20130;-83
2021/12/01 12:45:21;;;;;;;2.33;0.90;;;19.30;88.20;;;;;;4975412;28;20137;-83
2021/12/01 12:47:49;;;;;;;3.72;1.00;;;19.30;88.10;;;;;;4975575;28;20518;-83
2021/12/01 12:50:15;;;;;;;2.00;1.10;;;19.30;88.00;;;;;;4974701;28;20042;-84